Time;durP1;ratioP1;P1;durP2;ratioP2;P2;SDS_P1;SDS_P2;PMS_P1;PMS_P2;Temp;Humidity;BMP_temperature;BMP_pressure;BME280_temperature;BME280_humidity;BME280_pressure;Samples;Min_cycle;Max_cycle;Signal;HPM_P1;HPM_P2
2021/11/02 00:02:30;;;;;;;;;19.00;16.00;;;;;17.26;62.42;97194.59;4516964;29;106826;-60
2021/11/02 00:05:13;;;;;;;;;18.25;15.75;;;;;17.24;62.58;97183.13;4496610;29;102888;-59
2021/11/02 00:08:01;;;;;;;;;18.25;16.00;;;;;17.22;62.28;97183.41;4618579;29;102621;-60
2021/11/02 00:10:48;;;;;;;;;17.25;14.25;;;;;17.21;62.76;97170.81;4506667;29;107506;-60
2021/11/02 00:13:35;;;;;;;;;19.75;17.00;;;;;17.21;62.89;97180.94;4565225;29;102627;-61
2021/11/02 00:16:26;;;;;;;;;16.33;15.33;;;;;17.20;62.73;97171.91;4581129;29;103763;-60
2021/11/02 00:19:17;;;;;;;;;17.75;16.25;;;;;17.21;62.47;97180.94;4555197;29;107674;-60
2021/11/02 00:22:14;;;;;;;;;21.25;16.75;;;;;17.19;62.54;97177.69;4547968;29;103494;-60
2021/11/02 00:27:31;;;;;;;;;15.00;14.25;;;;;17.19;62.66;97164.84;4590438;29;102527;-60
2021/11/02 00:30:36;;;;;;;;;14.75;14.00;;;;;17.18;62.38;97165.13;4613483;29;103869;-60
2021/11/02 00:33:24;;;;;;;;;17.25;15.00;;;;;17.18;62.54;97165.13;4605739;29;108299;-59
2021/11/02 00:36:28;;;;;;;;;18.50;14.25;;;;;17.16;62.99;97156.38;4592372;29;103932;-60
2021/11/02 00:39:33;;;;;;;;;16.25;14.25;;;;;17.15;62.72;97165.69;4566231;29;102320;-60
2021/11/02 00:42:33;;;;;;;;;17.25;16.00;;;;;17.14;63.11;97162.13;4640635;29;104201;-60
2021/11/02 00:45:28;;;;;;;;;16.00;15.00;;;;;17.13;63.03;97160.47;4794161;29;110195;-60
2021/11/02 00:47:56;;;;;;;;;20.75;17.25;;;;;17.13;62.47;97167.84;4786546;29;103087;-60
2021/11/02 00:50:23;;;;;;;;;19.00;17.25;;;;;17.12;62.75;97166.22;4801546;29;104710;-60
2021/11/02 00:52:50;;;;;;;;;13.75;12.50;;;;;17.11;63.09;97164.59;4816567;28;102324;-60
2021/11/02 00:55:17;;;;;;;;;14.25;13.75;;;;;17.12;62.66;97163.47;4822692;28;104090;-59
2021/11/02 00:57:44;;;;;;;;;15.75;15.00;;;;;17.12;63.24;97160.75;4826992;28;102566;-60
2021/11/02 01:00:11;;;;;;;;;19.00;16.00;;;;;17.10;63.62;97147.41;4819051;28;104121;-59
2021/11/02 01:02:39;;;;;;;;;20.50;17.00;;;;;17.09;62.66;97145.75;4781680;28;103382;-60
2021/11/02 01:05:06;;;;;;;;;14.25;12.50;;;;;17.10;62.92;97143.84;4783234;29;104073;-60
2021/11/02 01:07:34;;;;;;;;;17.00;14.25;;;;;17.09;62.71;97142.19;4793995;28;102577;-59
2021/11/02 01:10:46;;;;;;;;;15.75;13.50;;;;;17.08;62.74;97133.19;4655488;29;103095;-60
2021/11/02 01:13:28;;;;;;;;;22.75;17.25;;;;;17.08;63.04;97144.09;4698962;29;103520;-60
2021/11/02 01:15:55;;;;;;;;;19.75;15.25;;;;;17.07;62.82;97138.91;4785213;29;104207;-63
2021/11/02 01:18:22;;;;;;;;;18.75;15.00;;;;;17.06;63.11;97142.75;4809739;29;102678;-60
2021/11/02 01:20:49;;;;;;;;;15.75;14.00;;;;;17.05;63.01;97135.66;4778616;29;103661;-60
2021/11/02 01:23:16;;;;;;;;;18.00;15.75;;;;;17.04;63.60;97126.66;4784907;29;103278;-60
2021/11/02 01:25:44;;;;;;;;;15.50;14.25;;;;;17.03;63.70;97125.00;4806144;29;104143;-60
2021/11/02 01:28:11;;;;;;;;;20.00;14.50;;;;;17.04;63.16;97125.81;4780515;29;102573;-60
2021/11/02 01:30:38;;;;;;;;;18.00;15.25;;;;;17.03;63.45;97125.00;4795343;29;102927;-60
2021/11/02 01:33:06;;;;;;;;;16.67;13.00;;;;;17.03;63.12;97124.19;4788182;29;103208;-60
2021/11/02 01:35:33;;;;;;;;;16.75;14.75;;;;;17.03;63.26;97129.63;4789770;29;104106;-60
2021/11/02 01:38:04;;;;;;;;;15.50;13.75;;;;;17.03;63.14;97124.19;4778547;29;103129;-60
2021/11/02 01:40:32;;;;;;;;;15.33;14.00;;;;;17.02;63.12;97128.03;4716596;29;102821;-59
2021/11/02 01:42:59;;;;;;;;;16.25;13.00;;;;;17.02;63.41;97128.81;4792354;29;102432;-60
2021/11/02 01:45:29;;;;;;;;;17.50;14.25;;;;;17.02;63.53;97114.38;4798924;29;104045;-60
2021/11/02 01:47:56;;;;;;;;;16.50;14.75;;;;;17.01;63.02;97124.47;4805073;29;102521;-60
2021/11/02 01:50:23;;;;;;;;;20.00;15.75;;;;;17.00;63.60;97120.09;4794901;29;102661;-60
2021/11/02 01:52:50;;;;;;;;;16.00;14.50;;;;;17.01;63.64;97123.66;4781485;29;102594;-60
2021/11/02 01:55:17;;;;;;;;;13.25;13.25;;;;;17.00;63.15;97113.81;4801532;29;104033;-59
2021/11/02 01:57:44;;;;;;;;;16.25;12.75;;;;;16.99;63.57;97114.91;4795595;29;103411;-60
2021/11/02 02:00:12;;;;;;;;;14.00;12.50;;;;;16.99;63.78;97106.72;4784298;29;102504;-60
2021/11/02 02:03:04;;;;;;;;;14.75;12.75;;;;;16.99;63.30;97101.25;4782548;29;103124;-60
2021/11/02 02:05:41;;;;;;;;;13.33;13.00;;;;;16.98;63.61;97088.69;4751506;29;109133;-60
2021/11/02 02:08:11;;;;;;;;;17.00;13.75;;;;;16.98;63.38;97085.97;4760153;28;104296;-60
2021/11/02 02:10:47;;;;;;;;;14.75;11.50;;;;;16.97;63.16;97087.09;4776937;28;102709;-60
2021/11/02 02:13:41;;;;;;;;;15.25;12.25;;;;;16.96;62.85;97089.00;4803689;29;102428;-60
2021/11/02 02:16:12;;;;;;;;;15.67;13.33;;;;;16.96;62.80;97075.34;4802502;28;108893;-60
2021/11/02 02:19:00;;;;;;;;;15.25;12.75;;;;;16.97;63.36;97081.63;4815391;28;102216;-60
2021/11/02 02:21:44;;;;;;;;;14.67;12.33;;;;;16.97;63.34;97070.69;4795980;28;103532;-60
2021/11/02 02:24:33;;;;;;;;;13.50;12.00;;;;;16.97;62.96;97070.69;4823418;28;103608;-60
2021/11/02 02:27:04;;;;;;;;;10.50;10.50;;;;;16.95;63.26;97070.97;4805855;28;109165;-60
2021/11/02 02:29:33;;;;;;;;;14.25;12.50;;;;;16.94;63.06;97078.34;4787979;28;105412;-60
2021/11/02 02:32:01;;;;;;;;;11.67;10.67;;;;;16.95;63.35;97079.16;4790654;28;104475;-59
2021/11/02 02:34:28;;;;;;;;;15.00;12.00;;;;;16.93;63.48;97079.44;4796753;29;103426;-60
2021/11/02 02:36:56;;;;;;;;;15.00;12.50;;;;;16.92;63.25;97071.53;4777074;29;110376;-60
2021/11/02 02:39:24;;;;;;;;;13.50;11.00;;;;;16.92;63.73;97066.06;4774559;29;103885;-60
2021/11/02 02:41:51;;;;;;;;;13.67;11.67;;;;;16.91;63.93;97073.44;4783346;28;102079;-60
2021/11/02 02:44:18;;;;;;;;;17.25;13.25;;;;;16.91;63.29;97072.63;4801871;29;102228;-61
2021/11/02 02:46:45;;;;;;;;;14.00;11.00;;;;;16.89;63.23;97070.16;4804575;28;104121;-60
2021/11/02 02:49:13;;;;;;;;;11.00;11.00;;;;;16.90;63.19;97068.25;4794293;28;103119;-60
2021/11/02 02:51:42;;;;;;;;;14.75;14.50;;;;;16.91;63.33;97078.09;4781953;28;102770;-60
2021/11/02 02:54:12;;;;;;;;;12.00;10.50;;;;;16.90;63.24;97077.25;4791211;28;103026;-60
2021/11/02 02:56:44;;;;;;;;;14.00;11.33;;;;;16.90;63.24;97077.25;4804525;29;104090;-60
2021/11/02 02:59:11;;;;;;;;;15.00;13.25;;;;;16.89;63.50;97063.88;4812526;28;103893;-60
2021/11/02 03:01:38;;;;;;;;;13.75;13.00;;;;;16.90;62.50;97070.97;4795622;29;104278;-60
2021/11/02 03:04:06;;;;;;;;;12.67;10.33;;;;;16.89;62.98;97081.09;4779412;28;102578;-60
2021/11/02 03:06:38;;;;;;;;;16.67;12.00;;;;;16.89;62.64;97066.63;4804658;28;103872;-60
2021/11/02 03:09:06;;;;;;;;;12.25;11.00;;;;;16.88;63.67;97078.66;4797108;29;102718;-60
2021/11/02 03:11:33;;;;;;;;;9.33;8.67;;;;;16.88;62.80;97078.66;4791127;29;104063;-60
2021/11/02 03:14:03;;;;;;;;;10.50;10.50;;;;;16.87;63.05;97064.19;4803056;29;103543;-60
2021/11/02 03:16:55;;;;;;;;;12.00;9.00;;;;;16.87;64.00;97064.19;4802434;29;104118;-60
2021/11/02 03:20:43;;;;;;;;;13.50;10.75;;;;;16.86;63.00;97062.53;4795588;29;103390;-60
2021/11/02 03:54:59;;;;;;;;;12.67;10.00;;;;;16.81;63.34;97035.25;4778642;29;102663;-61
2021/11/02 03:58:05;;;;;;;;;16.00;11.50;;;;;16.79;63.80;97026.56;4714510;29;104168;-60
2021/11/02 04:00:33;;;;;;;;;13.75;12.50;;;;;16.80;63.30;97033.63;4776212;29;109021;-60
2021/11/02 04:30:46;;;;;;;;;16.33;11.33;;;;;16.75;63.88;97028.16;4762695;29;104509;-62
2021/11/02 04:44:28;;;;;;;;;11.00;8.67;;;;;16.74;63.35;97023.00;4805695;28;108858;-60
2021/11/02 05:12:31;;;;;;;;;12.50;9.25;;;;;16.71;63.54;96994.34;4789769;29;102713;-60
2021/11/02 05:48:30;;;;;;;;;12.75;10.75;;;;;16.71;62.90;96980.69;4793011;29;102193;-60
2021/11/02 05:58:30;;;;;;;;;10.25;9.00;;;;;16.69;62.79;96982.09;4786526;29;102711;-60
2021/11/02 06:04:09;;;;;;;;;11.25;9.50;;;;;16.68;62.95;96978.53;4787080;29;102614;-60
2021/11/02 06:06:55;;;;;;;;;10.00;9.50;;;;;16.68;61.91;96975.00;4789064;29;104109;-61
2021/11/02 06:09:31;;;;;;;;;10.50;8.50;;;;;16.68;62.67;96978.53;4792735;29;102225;-60
2021/11/02 06:29:00;;;;;;;;;9.33;8.33;;;;;16.66;62.61;97009.94;4798477;29;103087;-60
2021/11/02 06:31:31;;;;;;;;;9.25;8.00;;;;;16.65;62.13;97008.31;4807818;29;102379;-60
2021/11/02 06:50:30;;;;;;;;;8.75;8.75;;;;;16.63;62.32;97022.22;4789676;29;102566;-59
2021/11/02 07:00:04;;;;;;;;;10.00;8.00;;;;;16.63;62.38;97041.31;4763908;29;105072;-60
2021/11/02 07:17:20;;;;;;;;;12.33;9.00;;;;;16.61;62.30;97062.63;4795113;29;102710;-60
2021/11/02 08:46:40;;;;;;;;;6.33;5.67;;;;;16.59;60.84;97032.06;4796780;29;102285;-60
2021/11/02 08:49:07;;;;;;;;;9.75;7.50;;;;;16.61;60.95;97042.72;4825022;28;108994;-60
2021/11/02 08:51:35;;;;;;;;;8.00;8.00;;;;;16.61;60.74;97043.53;4813022;28;102315;-61
2021/11/02 08:54:02;;;;;;;;;8.00;6.25;;;;;16.61;61.67;97038.06;4818612;28;102392;-60
2021/11/02 08:56:29;;;;;;;;;8.50;7.25;;;;;16.61;61.58;97035.34;4818168;28;102610;-61
2021/11/02 08:58:56;;;;;;;;;8.25;7.50;;;;;16.61;61.13;97032.63;4803092;28;104321;-60
2021/11/02 09:01:43;;;;;;;;;7.00;7.00;;;;;16.61;61.43;97040.81;4818953;28;102495;-60
2021/11/02 09:04:10;;;;;;;;;6.00;6.00;;;;;16.61;61.73;97040.81;4814071;28;102450;-60
2021/11/02 09:06:38;;;;;;;;;7.00;7.00;;;;;16.62;60.98;97044.31;4842208;28;102666;-60
2021/11/02 09:09:06;;;;;;;;;10.00;8.50;;;;;16.61;61.10;97031.78;4786236;29;104089;-60
2021/11/02 09:11:34;;;;;;;;;7.25;6.75;;;;;16.60;61.28;97039.16;4805217;28;102556;-60
2021/11/02 09:14:01;;;;;;;;;8.33;7.67;;;;;16.60;61.21;97036.44;4796574;28;102545;-60
2021/11/02 09:16:28;;;;;;;;;8.50;7.75;;;;;16.60;60.81;97030.97;4790532;29;103409;-60
2021/11/02 09:18:56;;;;;;;;;8.00;7.00;;;;;16.59;61.09;97029.34;4797799;29;104262;-60
2021/11/02 09:21:23;;;;;;;;;6.00;6.00;;;;;16.59;60.74;97042.97;4829822;28;102513;-60
2021/11/02 09:23:51;;;;;;;;;6.00;6.00;;;;;16.61;60.47;97045.44;4821182;28;102871;-60
2021/11/02 09:26:20;;;;;;;;;9.33;7.33;;;;;16.60;60.38;97038.34;4833111;28;103014;-59
2021/11/02 09:28:47;;;;;;;;;8.33;7.33;;;;;16.60;60.81;97038.34;4823105;28;104143;-59
2021/11/02 09:31:18;;;;;;;;;7.75;7.25;;;;;16.61;60.93;97027.16;4804757;29;102893;-59
2021/11/02 09:33:45;;;;;;;;;9.50;8.00;;;;;16.61;61.20;97029.06;4795286;28;103762;-60
2021/11/02 09:36:14;;;;;;;;;9.50;7.75;;;;;16.61;60.84;97029.88;4827248;28;102160;-60
2021/11/02 09:38:48;;;;;;;;;9.75;6.50;;;;;16.61;60.91;97018.16;4816121;28;104398;-60
2021/11/02 09:41:25;;;;;;;;;8.00;7.50;;;;;16.61;60.37;97023.59;4801908;29;102656;-60
2021/11/02 09:44:13;;;;;;;;;8.50;7.50;;;;;16.62;60.88;97025.22;4804540;29;102644;-60
2021/11/02 09:47:06;;;;;;;;;7.00;7.00;;;;;16.62;60.60;97026.03;4823346;28;103711;-60
2021/11/02 09:49:51;;;;;;;;;7.75;7.75;;;;;16.61;60.71;97024.44;4804293;29;108852;-60
2021/11/02 09:56:31;;;;;;;;;7.33;7.33;;;;;16.61;60.49;97029.06;4818596;28;102809;-60
2021/11/02 09:59:09;;;;;;;;;8.50;6.00;;;;;16.60;61.25;97036.44;4807936;28;102830;-61
2021/11/02 10:02:12;;;;;;;;;7.00;6.25;;;;;16.60;61.21;97043.78;4823360;28;108911;-60
2021/11/02 10:04:52;;;;;;;;;8.00;7.00;;;;;16.61;60.36;97038.06;4770261;28;102670;-60
2021/11/02 10:07:24;;;;;;;;;8.50;7.75;;;;;16.61;60.66;97037.25;4803073;28;102972;-60
2021/11/02 10:09:56;;;;;;;;;7.00;5.75;;;;;16.61;60.23;97034.53;4812491;28;102693;-60
2021/11/02 10:12:26;;;;;;;;;9.00;7.00;;;;;16.62;61.01;97038.88;4827108;28;104120;-60
2021/11/02 10:15:09;;;;;;;;;8.00;6.67;;;;;16.62;61.23;97030.69;4809231;29;102934;-60
2021/11/02 10:18:03;;;;;;;;;7.00;6.33;;;;;16.63;60.17;97032.31;4816367;28;102494;-60
2021/11/02 10:20:54;;;;;;;;;8.75;7.00;;;;;16.63;60.97;97033.13;4799967;29;103993;-60
2021/11/02 10:24:12;;;;;;;;;7.00;5.33;;;;;16.64;60.62;97029.31;4816467;28;108852;-60
2021/11/02 10:27:36;;;;;;;;;9.33;7.33;;;;;16.62;59.74;97023.31;4781435;29;102161;-60
2021/11/02 10:30:33;;;;;;;;;9.50;8.00;;;;;16.62;59.90;97025.22;4712269;29;102480;-60
2021/11/02 10:33:20;;;;;;;;;7.00;6.67;;;;;16.63;60.53;97021.41;4686578;29;102805;-60
2021/11/02 10:36:01;;;;;;;;;8.00;7.00;;;;;16.62;59.88;97017.84;4795352;28;109105;-60
2021/11/02 10:38:48;;;;;;;;;10.33;7.00;;;;;16.62;60.49;97028.75;4817336;28;102531;-60
2021/11/02 10:41:26;;;;;;;;;9.00;8.00;;;;;16.62;60.11;97017.84;4807922;29;102571;-60
2021/11/02 10:44:21;;;;;;;;;9.33;7.00;;;;;16.62;60.49;97020.59;4798362;29;102317;-60
2021/11/02 10:47:00;;;;;;;;;9.00;7.00;;;;;16.63;60.55;97015.94;4806835;28;109070;-60
2021/11/02 10:49:49;;;;;;;;;7.00;7.00;;;;;16.62;60.04;97017.84;4811132;28;102594;-60
2021/11/02 10:52:18;;;;;;;;;6.00;6.00;;;;;16.62;60.10;97009.66;4814792;28;102644;-60
2021/11/02 10:54:48;;;;;;;;;9.00;7.33;;;;;16.63;60.60;97016.75;4804854;28;102271;-60
2021/11/02 10:57:25;;;;;;;;;6.67;6.33;;;;;16.63;60.45;97005.03;4817480;28;104042;-60
2021/11/02 10:59:54;;;;;;;;;8.00;8.00;;;;;16.63;60.56;97010.47;4817233;28;102468;-60
2021/11/02 11:02:25;;;;;;;;;7.67;7.00;;;;;16.62;60.20;97006.94;4790466;29;102127;-60
2021/11/02 11:04:59;;;;;;;;;7.00;5.75;;;;;16.63;60.10;97008.56;4809536;29;102738;-60
2021/11/02 11:07:33;;;;;;;;;8.00;6.67;;;;;16.63;60.68;97005.03;4810908;28;104080;-60
2021/11/02 11:10:00;;;;;;;;;6.33;6.00;;;;;16.63;60.44;97011.31;4778328;29;103287;-60
2021/11/02 11:12:27;;;;;;;;;7.67;6.67;;;;;16.62;59.62;97009.66;4782883;29;103914;-60
2021/11/02 11:14:54;;;;;;;;;7.00;7.00;;;;;16.61;60.58;97007.22;4782624;29;102540;-60
2021/11/02 11:17:28;;;;;;;;;9.67;9.00;;;;;16.63;60.54;97015.94;4796470;29;105658;-60
2021/11/02 11:20:10;;;;;;;;;11.00;7.67;;;;;16.61;59.92;97010.78;4803820;28;103130;-61
2021/11/02 11:22:41;;;;;;;;;8.75;8.50;;;;;16.61;60.83;97005.31;4807311;29;102543;-60
2021/11/02 11:25:12;;;;;;;;;7.00;7.00;;;;;16.61;60.18;97002.59;4809180;29;102598;-60
2021/11/02 11:27:57;;;;;;;;;7.00;6.00;;;;;16.61;59.81;97013.50;4795811;29;104056;-60
2021/11/02 11:30:31;;;;;;;;;9.33;8.00;;;;;16.61;60.47;97010.78;4798468;29;102075;-59
2021/11/02 11:32:58;;;;;;;;;8.00;7.00;;;;;16.62;60.67;97008.84;4803171;29;102392;-60
2021/11/02 11:35:25;;;;;;;;;7.00;7.00;;;;;16.62;60.22;97006.94;4816263;28;102605;-60
2021/11/02 11:37:53;;;;;;;;;6.33;5.67;;;;;16.61;60.90;97008.06;4804196;28;104032;-61
2021/11/02 11:40:22;;;;;;;;;8.00;7.25;;;;;16.61;60.04;97002.59;4799821;29;102772;-61
2021/11/02 11:42:50;;;;;;;;;6.67;6.67;;;;;16.61;60.03;96999.88;4807252;28;102702;-60
2021/11/02 11:45:22;;;;;;;;;11.50;8.00;;;;;16.61;59.92;97002.59;4799576;29;110813;-60
2021/11/02 11:48:26;;;;;;;;;7.00;7.00;;;;;16.61;60.05;96999.06;4805285;29;104074;-60
2021/11/02 11:51:00;;;;;;;;;7.00;6.33;;;;;16.61;60.68;96993.59;4743842;29;102758;-60
2021/11/02 11:53:29;;;;;;;;;9.25;7.75;;;;;16.61;60.09;96997.13;4784911;29;102562;-60
2021/11/02 11:56:11;;;;;;;;;7.67;6.33;;;;;16.59;59.91;96996.59;4807964;29;102596;-60
2021/11/02 11:58:47;;;;;;;;;6.00;6.00;;;;;16.59;59.63;97003.94;4802536;29;108933;-60
2021/11/02 12:01:35;;;;;;;;;7.67;7.67;;;;;16.59;60.08;96990.31;4802617;29;102424;-60
2021/11/02 12:04:22;;;;;;;;;9.33;8.00;;;;;16.60;60.07;96994.69;4811948;28;111369;-60
2021/11/02 12:06:58;;;;;;;;;6.67;6.00;;;;;16.57;59.91;96996.00;4799717;29;102825;-60
2021/11/02 12:09:27;;;;;;;;;7.67;6.00;;;;;16.59;60.17;96993.84;4785805;29;105202;-60
2021/11/02 12:11:54;;;;;;;;;6.00;6.00;;;;;16.59;60.63;96993.03;4796271;29;102489;-60
2021/11/02 12:14:24;;;;;;;;;7.33;7.00;;;;;16.59;59.74;96993.84;4792351;29;103124;-60
2021/11/02 12:16:57;;;;;;;;;6.33;5.67;;;;;16.58;60.38;96997.69;4821491;28;102629;-60
2021/11/02 12:19:30;;;;;;;;;9.00;7.00;;;;;16.59;60.35;96999.31;4832715;28;104191;-60
2021/11/02 12:22:06;;;;;;;;;8.00;7.75;;;;;16.59;59.76;97003.94;4827141;28;102347;-60
2021/11/02 12:24:39;;;;;;;;;7.00;6.67;;;;;16.58;59.98;96994.94;4814649;28;102288;-60
2021/11/02 12:27:16;;;;;;;;;8.00;7.67;;;;;16.57;60.26;97004.19;4833719;28;102289;-60
2021/11/02 12:29:43;;;;;;;;;7.00;7.00;;;;;16.58;60.09;97002.31;4826005;28;109790;-61
2021/11/02 12:32:12;;;;;;;;;7.00;7.00;;;;;16.57;60.53;96995.22;4817307;28;104302;-60
2021/11/02 12:34:45;;;;;;;;;12.00;7.00;;;;;16.56;60.23;96997.13;4825708;28;102482;-61
2021/11/02 12:37:13;;;;;;;;;8.00;7.33;;;;;16.55;59.86;96995.47;4830102;28;103694;-60
2021/11/02 12:39:40;;;;;;;;;7.67;7.00;;;;;16.55;60.42;97002.84;4811913;29;104199;-59
2021/11/02 12:42:08;;;;;;;;;7.75;7.00;;;;;16.56;60.32;97010.75;4826102;28;109457;-62
2021/11/02 12:44:40;;;;;;;;;6.00;6.00;;;;;16.55;60.16;97008.31;4818849;29;102232;-60
2021/11/02 12:47:11;;;;;;;;;7.00;7.00;;;;;16.55;60.04;97002.84;4827857;28;102305;-61
2021/11/02 12:49:42;;;;;;;;;6.25;6.25;;;;;16.54;59.84;97004.75;4807185;28;108956;-61
2021/11/02 12:52:11;;;;;;;;;7.67;6.67;;;;;16.55;59.88;97000.94;4820302;29;102592;-60
2021/11/02 12:54:40;;;;;;;;;9.00;7.00;;;;;16.55;60.60;97003.66;4819201;28;102372;-64
2021/11/02 12:57:14;;;;;;;;;6.67;6.67;;;;;16.56;60.01;97015.41;4822406;29;102421;-60
2021/11/02 12:59:48;;;;;;;;;7.33;6.33;;;;;16.55;59.90;97011.84;4816670;28;108981;-61
2021/11/02 13:02:35;;;;;;;;;7.50;7.00;;;;;16.53;60.51;97008.56;4811960;28;102657;-61
2021/11/02 13:05:06;;;;;;;;;7.33;5.33;;;;;16.53;60.08;97011.31;4823507;28;102463;-61
2021/11/02 13:07:38;;;;;;;;;12.33;6.67;;;;;16.53;60.68;97016.75;4823680;28;102610;-60
2021/11/02 13:10:25;;;;;;;;;7.33;7.00;;;;;16.51;60.24;97013.50;4831221;29;108815;-60
2021/11/02 13:12:54;;;;;;;;;6.25;6.25;;;;;16.51;59.70;97013.50;4804486;28;102783;-59
2021/11/02 13:15:21;;;;;;;;;10.00;7.25;;;;;16.50;60.67;97018.16;4803004;29;103622;-60
2021/11/02 13:17:50;;;;;;;;;8.00;7.00;;;;;16.52;60.04;97018.66;4818461;29;105000;-60
2021/11/02 13:20:35;;;;;;;;;7.33;6.67;;;;;16.50;59.67;97015.41;4822493;29;103946;-60
2021/11/02 13:23:02;;;;;;;;;6.33;6.00;;;;;16.53;59.88;97016.75;4806195;29;102689;-61
2021/11/02 13:25:37;;;;;;;;;7.00;7.00;;;;;16.52;59.76;97020.59;4825903;28;102679;-60
2021/11/02 13:28:04;;;;;;;;;7.00;7.00;;;;;16.52;59.85;97018.66;4800714;29;102650;-61
2021/11/02 13:30:44;;;;;;;;;8.00;7.00;;;;;16.51;60.03;97018.97;4825403;28;104056;-61
2021/11/02 13:33:19;;;;;;;;;6.67;6.67;;;;;16.54;60.01;97029.31;4818248;29;102662;-60
2021/11/02 13:36:02;;;;;;;;;7.33;7.33;;;;;16.52;60.38;97017.88;4817434;29;103452;-61
2021/11/02 13:38:37;;;;;;;;;9.50;7.25;;;;;16.53;60.45;97027.66;4798703;29;103663;-61
2021/11/02 13:41:21;;;;;;;;;7.67;6.67;;;;;16.52;59.73;97026.84;4797938;29;107959;-60
2021/11/02 13:44:39;;;;;;;;;7.67;6.00;;;;;16.52;60.13;97026.06;4848202;29;103168;-60
2021/11/02 13:47:28;;;;;;;;;6.75;6.25;;;;;16.51;60.45;97027.16;4819556;29;102592;-60
2021/11/02 13:49:55;;;;;;;;;6.00;6.00;;;;;16.49;59.52;97024.69;4788469;29;102825;-61
2021/11/02 13:52:22;;;;;;;;;6.67;6.00;;;;;16.50;60.01;97026.31;4637321;29;104113;-60
2021/11/02 13:54:49;;;;;;;;;9.00;7.33;;;;;16.50;60.28;97028.22;4754117;29;104880;-60
2021/11/02 13:57:16;;;;;;;;;7.25;5.75;;;;;16.49;59.28;97023.88;4798683;29;102653;-61
2021/11/02 13:59:43;;;;;;;;;7.00;7.00;;;;;16.49;60.04;97027.41;4802074;29;102284;-60
2021/11/02 14:02:10;;;;;;;;;7.00;6.00;;;;;16.50;59.78;97022.78;4798676;29;104090;-60
2021/11/02 14:04:38;;;;;;;;;6.67;6.00;;;;;16.51;59.73;97027.16;4782474;29;102409;-61
2021/11/02 14:07:17;;;;;;;;;8.67;6.33;;;;;16.51;59.86;97025.25;4773734;29;104020;-60
2021/11/02 14:09:55;;;;;;;;;6.00;6.00;;;;;16.51;59.88;97016.22;4755347;29;102607;-61
2021/11/02 14:12:29;;;;;;;;;7.50;7.50;;;;;16.50;59.85;97014.59;4795123;29;105570;-60
2021/11/02 14:15:09;;;;;;;;;6.00;6.00;;;;;16.50;60.08;97020.06;4798128;29;102315;-60
2021/11/02 14:17:43;;;;;;;;;6.33;5.33;;;;;16.49;59.47;97015.69;4791516;29;102649;-60
2021/11/02 14:20:41;;;;;;;;;7.33;6.67;;;;;16.49;59.64;97015.69;4781110;29;105561;-60
2021/11/02 14:23:15;;;;;;;;;11.00;7.00;;;;;16.47;59.89;97017.88;4775864;29;109551;-60
2021/11/02 14:25:42;;;;;;;;;7.75;5.25;;;;;16.46;59.59;97010.78;4802509;29;102171;-60
2021/11/02 14:28:10;;;;;;;;;8.00;7.00;;;;;16.46;59.96;97005.34;4772358;29;102134;-61
2021/11/02 14:30:43;;;;;;;;;6.50;6.50;;;;;16.45;59.67;97009.97;4770681;29;102668;-60
2021/11/02 14:33:19;;;;;;;;;4.67;3.33;;;;;16.44;59.96;97013.78;4799414;29;104131;-61
2021/11/02 14:36:01;;;;;;;;;6.00;5.00;;;;;16.44;59.71;97023.88;4803833;29;102568;-60
2021/11/02 14:38:28;;;;;;;;;7.00;6.00;;;;;16.45;59.66;97025.50;4788877;28;102341;-60
2021/11/02 14:41:33;;;;;;;;;5.33;5.33;;;;;16.45;59.63;97025.50;4795926;29;103042;-60
2021/11/02 14:44:15;;;;;;;;;5.50;4.75;;;;;16.44;59.45;97018.41;4788633;29;109053;-60
2021/11/02 14:46:49;;;;;;;;;6.00;5.00;;;;;16.43;59.61;97020.34;4795619;29;102483;-60
2021/11/02 14:49:28;;;;;;;;;8.25;7.75;;;;;16.44;59.62;97021.97;4803999;29;103445;-60
2021/11/02 14:53:00;;;;;;;;;6.00;6.00;;;;;16.44;59.54;97023.88;4788925;29;103206;-60
2021/11/02 14:55:46;;;;;;;;;6.33;6.00;;;;;16.43;59.61;97028.53;4782076;29;108903;-60
2021/11/02 14:58:43;;;;;;;;;7.50;6.25;;;;;16.43;60.22;97033.19;4796235;29;102387;-60
2021/11/02 15:01:10;;;;;;;;;6.00;6.00;;;;;16.42;59.55;97024.19;4781237;29;102516;-61
2021/11/02 15:03:58;;;;;;;;;6.33;6.00;;;;;16.42;59.86;97020.63;4798368;29;102728;-60
2021/11/02 15:06:35;;;;;;;;;6.33;6.00;;;;;16.41;59.88;97022.53;4778877;29;110124;-61
2021/11/02 15:09:16;;;;;;;;;6.67;6.00;;;;;16.41;59.70;97024.44;4788069;29;102655;-60
2021/11/02 15:11:46;;;;;;;;;7.50;7.00;;;;;16.40;60.09;97025.53;4795046;29;102526;-60
2021/11/02 15:14:15;;;;;;;;;8.00;6.00;;;;;16.40;59.56;97025.53;4793001;29;103126;-60
2021/11/02 15:16:49;;;;;;;;;7.00;6.67;;;;;16.40;59.20;97026.34;4801860;29;104838;-60
2021/11/02 15:19:16;;;;;;;;;6.00;5.67;;;;;16.40;59.42;97039.16;4794703;29;102712;-60
2021/11/02 15:21:57;;;;;;;;;7.00;7.00;;;;;16.40;59.97;97023.63;4789735;29;111464;-60
2021/11/02 15:24:25;;;;;;;;;6.00;5.50;;;;;16.41;59.92;97018.97;4801734;29;102676;-61
2021/11/02 15:26:55;;;;;;;;;4.50;4.50;;;;;16.41;60.13;97017.06;4805423;29;108927;-60
2021/11/02 15:29:24;;;;;;;;;6.00;6.00;;;;;16.40;59.50;97020.06;4798097;29;102223;-61
2021/11/02 15:32:16;;;;;;;;;6.00;6.00;;;;;16.40;59.90;97020.06;4796220;29;102591;-60
2021/11/02 15:34:57;;;;;;;;;4.00;3.33;;;;;16.40;60.24;97022.78;4783985;29;102240;-61
2021/11/02 15:37:37;;;;;;;;;6.33;6.00;;;;;16.39;60.26;97021.97;4804074;29;108795;-60
2021/11/02 15:40:09;;;;;;;;;8.00;6.00;;;;;16.38;59.40;97033.19;4803012;29;102374;-60
2021/11/02 15:42:48;;;;;;;;;5.00;5.00;;;;;16.38;60.31;97031.28;4807017;29;103386;-60
2021/11/02 15:45:36;;;;;;;;;5.00;4.00;;;;;16.38;59.60;97035.91;4796061;29;103557;-61
2021/11/02 15:48:13;;;;;;;;;6.33;6.00;;;;;16.37;59.81;97029.63;4799158;29;104084;-60
2021/11/02 15:50:42;;;;;;;;;5.67;5.33;;;;;16.37;60.26;97035.09;4802847;29;103637;-60
2021/11/02 15:53:09;;;;;;;;;8.00;7.33;;;;;16.37;59.48;97035.09;4805724;29;102471;-61
2021/11/02 15:55:37;;;;;;;;;7.00;5.33;;;;;16.38;59.88;97038.66;4779994;29;102234;-60
2021/11/02 15:58:06;;;;;;;;;6.00;6.00;;;;;16.37;60.26;97043.28;4792012;29;104271;-61
2021/11/02 16:00:41;;;;;;;;;8.25;6.00;;;;;16.39;59.33;97045.75;4789775;29;102520;-61
2021/11/02 16:03:14;;;;;;;;;7.00;6.00;;;;;16.39;59.57;97053.94;4801075;29;102490;-61
2021/11/02 16:05:43;;;;;;;;;6.50;5.75;;;;;16.39;59.44;97054.72;4807357;29;102856;-61
2021/11/02 16:08:16;;;;;;;;;6.33;6.00;;;;;16.39;60.31;97053.94;4801778;29;104031;-60
2021/11/02 16:10:44;;;;;;;;;6.00;6.00;;;;;16.39;59.46;97053.94;4807418;29;102444;-61
2021/11/02 16:13:11;;;;;;;;;5.50;5.50;;;;;16.38;59.94;97046.81;4806104;29;102234;-61
2021/11/02 16:15:39;;;;;;;;;6.00;6.00;;;;;16.38;59.74;97052.28;4807585;29;102648;-61
2021/11/02 16:18:15;;;;;;;;;7.33;7.33;;;;;16.38;59.77;97053.09;4806713;29;104081;-60
2021/11/02 16:20:42;;;;;;;;;7.00;7.00;;;;;16.37;59.78;97058.81;4800067;29;103524;-61
2021/11/02 16:23:19;;;;;;;;;7.00;7.00;;;;;16.37;59.55;97056.09;4792000;29;102510;-60
2021/11/02 16:25:57;;;;;;;;;9.25;6.50;;;;;16.36;59.59;97049.81;4809710;29;103477;-60
2021/11/02 16:28:31;;;;;;;;;4.00;3.00;;;;;16.36;59.27;97066.19;4800487;29;109074;-61
2021/11/02 16:31:06;;;;;;;;;10.25;7.50;;;;;16.37;59.94;97073.28;4803690;29;103062;-61
2021/11/02 16:33:43;;;;;;;;;8.33;7.00;;;;;16.36;59.21;97070.81;4800145;29;105937;-60
2021/11/02 16:36:20;;;;;;;;;8.00;7.50;;;;;16.36;59.83;97079.00;4799658;29;102514;-61
2021/11/02 16:38:49;;;;;;;;;10.75;9.50;;;;;16.36;59.57;97077.09;4804188;29;104062;-61
2021/11/02 16:41:23;;;;;;;;;7.00;7.00;;;;;16.36;59.64;97076.28;4793041;29;103911;-61
2021/11/02 16:44:04;;;;;;;;;9.00;8.00;;;;;16.35;59.30;97074.63;4806226;29;102665;-61
2021/11/02 16:46:33;;;;;;;;;8.00;7.00;;;;;16.35;59.78;97094.56;4707545;29;102583;-61
2021/11/02 16:49:23;;;;;;;;;13.75;10.00;;;;;16.36;59.85;97089.91;4745696;29;103905;-60